Terminal Aerodrome Forecast
Issued by NWS Charleston, WV

Current Version | Previous Version | Text Only | Print | Product List | Glossary Off
Versions: 1 2 3 4 5 6 7 8 9 10 11 12 13 14 15 16 17 18 19 20 21 22 23 24 25 26 27 28

358
FTUS41 KRLX 152341
TAFPKB
TAF
KPKB 152341Z 1600/1624 23009G17KT 6SM -SHRA SCT025 BKN035 OVC050
     FM160500 23010G22KT 2SM +RA BR BKN008 OVC015
     FM161200 29007KT 3SM +RA BR OVC008
     FM161700 32010KT P6SM OVC015
     FM162200 32009KT P6SM BKN080
     FM162300 33007KT P6SM SCT200=

USA.gov is the U.S. government's official web portal to all federal, state and local government web resources and services.